Cincinnati, Ohio
Traffic Map
Current Weather Conditions
Cincinnati, Ohio
Clear
Clear

Feels Like: 5°
Wind Chill: Ceiling: Unl
Heat Index: Visibility: 10mi
Dew Point: Wind: 9mph
Humidity: 66% Direction: 20° (NNE)
Pressure: 29.82in Gusts: 0mph
Raw Report DataKLUK 261253Z 02008KT 10SM CLR 08/02 A2982 RMK AO2 SLP099 T00780017
Traffic Incident Summary
Active as of:
Severity:
Category:
InformationThere was an issue retrieving the traffic information for this location. Please try a different location or try again shortly.
Advertisements
Track Severe Weather on mobile